Ashland, Wisconsin
Current Conditions -  °F | °C
As of 3:26 AM on Monday 24 Nov 2014 (Local Time) from KASX Reporting Station
Haze Haze  
Wind Chill: -1°   Ceiling: 1300
Heat Index:   Visibility: 5mi
Dew Point:   Wind: 6mph
Humidity: 96%   Direction: 300°WNW
Pressure: 29.2"   Gusts: NA
Location:  46.59°N, 90.89°W
Report Text: KASX 240926Z AUTO 30005KT 5SM UP BR OVC013 02/01 A2920 RMK AO2 P0002 T00170011
Loading
Personal Weather Stations






























Interactive Weather Map New forecast layout! Learn more

10-Day Weather Forecast

Advertisements
Track Severe Weather on mobile